sensor_id;sensor_type;location;lat;lon;timestamp;P1;durP1;ratioP1;P2;durP2;ratioP2
23304;SDS011;11821;51.456;8.844;2022-11-18T00:00:29;6.60;;;5.28;;
23304;SDS011;11821;51.456;8.844;2022-11-18T00:02:55;7.13;;;5.45;;
23304;SDS011;11821;51.456;8.844;2022-11-18T00:05:21;8.07;;;4.63;;
23304;SDS011;11821;51.456;8.844;2022-11-18T00:07:47;8.07;;;5.00;;
23304;SDS011;11821;51.456;8.844;2022-11-18T00:10:14;5.50;;;4.18;;
23304;SDS011;11821;51.456;8.844;2022-11-18T00:12:40;5.25;;;4.75;;
23304;SDS011;11821;51.456;8.844;2022-11-18T00:15:25;8.57;;;4.80;;
23304;SDS011;11821;51.456;8.844;2022-11-18T00:17:51;6.43;;;4.60;;
23304;SDS011;11821;51.456;8.844;2022-11-18T00:20:17;6.72;;;5.05;;
23304;SDS011;11821;51.456;8.844;2022-11-18T00:22:44;6.68;;;5.70;;
23304;SDS011;11821;51.456;8.844;2022-11-18T00:25:11;9.93;;;6.10;;
23304;SDS011;11821;51.456;8.844;2022-11-18T00:27:37;7.43;;;5.47;;
23304;SDS011;11821;51.456;8.844;2022-11-18T00:30:03;7.78;;;4.88;;
23304;SDS011;11821;51.456;8.844;2022-11-18T00:32:30;7.75;;;5.85;;
23304;SDS011;11821;51.456;8.844;2022-11-18T00:34:56;3.45;;;3.15;;
23304;SDS011;11821;51.456;8.844;2022-11-18T00:37:22;8.02;;;6.82;;
23304;SDS011;11821;51.456;8.844;2022-11-18T00:39:48;7.88;;;6.65;;
23304;SDS011;11821;51.456;8.844;2022-11-18T00:42:14;7.63;;;6.40;;
23304;SDS011;11821;51.456;8.844;2022-11-18T00:44:59;7.30;;;6.53;;
23304;SDS011;11821;51.456;8.844;2022-11-18T00:47:25;8.98;;;6.28;;
23304;SDS011;11821;51.456;8.844;2022-11-18T00:49:51;13.27;;;5.90;;
23304;SDS011;11821;51.456;8.844;2022-11-18T00:52:18;5.15;;;4.43;;
23304;SDS011;11821;51.456;8.844;2022-11-18T00:54:44;6.40;;;5.05;;
23304;SDS011;11821;51.456;8.844;2022-11-18T00:57:10;8.25;;;5.13;;
23304;SDS011;11821;51.456;8.844;2022-11-18T00:59:36;5.45;;;4.90;;
23304;SDS011;11821;51.456;8.844;2022-11-18T01:02:03;7.68;;;4.55;;
23304;SDS011;11821;51.456;8.844;2022-11-18T01:04:30;8.45;;;4.47;;
23304;SDS011;11821;51.456;8.844;2022-11-18T01:06:56;5.30;;;4.57;;
23304;SDS011;11821;51.456;8.844;2022-11-18T01:09:23;5.35;;;4.68;;
23304;SDS011;11821;51.456;8.844;2022-11-18T01:11:49;7.07;;;5.05;;
23304;SDS011;11821;51.456;8.844;2022-11-18T01:14:34;5.25;;;4.75;;
23304;SDS011;11821;51.456;8.844;2022-11-18T01:17:00;9.00;;;5.00;;
23304;SDS011;11821;51.456;8.844;2022-11-18T01:19:26;6.03;;;4.47;;
23304;SDS011;11821;51.456;8.844;2022-11-18T01:21:52;6.47;;;5.03;;
23304;SDS011;11821;51.456;8.844;2022-11-18T01:24:21;7.80;;;4.65;;
23304;SDS011;11821;51.456;8.844;2022-11-18T01:26:47;6.90;;;4.88;;
23304;SDS011;11821;51.456;8.844;2022-11-18T01:29:13;6.88;;;5.20;;
23304;SDS011;11821;51.456;8.844;2022-11-18T01:31:40;13.63;;;5.20;;
23304;SDS011;11821;51.456;8.844;2022-11-18T01:34:06;6.80;;;4.80;;
23304;SDS011;11821;51.456;8.844;2022-11-18T01:36:32;7.45;;;5.05;;
23304;SDS011;11821;51.456;8.844;2022-11-18T01:38:59;7.38;;;5.22;;
23304;SDS011;11821;51.456;8.844;2022-11-18T01:41:25;7.50;;;4.80;;
23304;SDS011;11821;51.456;8.844;2022-11-18T01:43:53;9.73;;;5.88;;
23304;SDS011;11821;51.456;8.844;2022-11-18T01:46:26;10.38;;;6.05;;
23304;SDS011;11821;51.456;8.844;2022-11-18T01:51:47;6.15;;;4.22;;
23304;SDS011;11821;51.456;8.844;2022-11-18T01:54:19;7.07;;;5.28;;
23304;SDS011;11821;51.456;8.844;2022-11-18T01:56:53;10.45;;;5.20;;
23304;SDS011;11821;51.456;8.844;2022-11-18T01:59:23;8.25;;;5.50;;
23304;SDS011;11821;51.456;8.844;2022-11-18T02:01:55;10.45;;;5.68;;
23304;SDS011;11821;51.456;8.844;2022-11-18T02:04:23;10.43;;;5.22;;
23304;SDS011;11821;51.456;8.844;2022-11-18T02:06:51;10.23;;;5.25;;
23304;SDS011;11821;51.456;8.844;2022-11-18T02:09:19;9.20;;;5.05;;
23304;SDS011;11821;51.456;8.844;2022-11-18T02:11:46;9.30;;;4.72;;
23304;SDS011;11821;51.456;8.844;2022-11-18T02:14:16;10.00;;;5.50;;
23304;SDS011;11821;51.456;8.844;2022-11-18T02:30:10;16.40;;;6.88;;
23304;SDS011;11821;51.456;8.844;2022-11-18T02:35:55;17.75;;;7.18;;
23304;SDS011;11821;51.456;8.844;2022-11-18T02:38:33;14.02;;;6.90;;
23304;SDS011;11821;51.456;8.844;2022-11-18T02:41:08;16.00;;;7.18;;
23304;SDS011;11821;51.456;8.844;2022-11-18T02:43:40;20.10;;;7.20;;
23304;SDS011;11821;51.456;8.844;2022-11-18T02:46:12;17.95;;;7.53;;
23304;SDS011;11821;51.456;8.844;2022-11-18T02:48:43;13.63;;;7.03;;
23304;SDS011;11821;51.456;8.844;2022-11-18T02:51:13;14.43;;;6.93;;
23304;SDS011;11821;51.456;8.844;2022-11-18T02:53:44;14.32;;;7.13;;
23304;SDS011;11821;51.456;8.844;2022-11-18T02:56:12;16.98;;;6.95;;
23304;SDS011;11821;51.456;8.844;2022-11-18T02:58:40;17.98;;;7.15;;
23304;SDS011;11821;51.456;8.844;2022-11-18T03:01:06;19.67;;;7.50;;
23304;SDS011;11821;51.456;8.844;2022-11-18T03:03:45;13.75;;;7.05;;
23304;SDS011;11821;51.456;8.844;2022-11-18T03:17:12;16.27;;;6.82;;
23304;SDS011;11821;51.456;8.844;2022-11-18T03:22:37;17.90;;;6.25;;
23304;SDS011;11821;51.456;8.844;2022-11-18T03:25:27;14.43;;;6.35;;
23304;SDS011;11821;51.456;8.844;2022-11-18T03:28:12;15.25;;;5.97;;
23304;SDS011;11821;51.456;8.844;2022-11-18T03:30:45;12.55;;;5.78;;
23304;SDS011;11821;51.456;8.844;2022-11-18T03:33:35;12.55;;;6.43;;
23304;SDS011;11821;51.456;8.844;2022-11-18T03:36:08;15.60;;;6.50;;
23304;SDS011;11821;51.456;8.844;2022-11-18T03:38:38;14.65;;;7.65;;
23304;SDS011;11821;51.456;8.844;2022-11-18T03:41:10;8.15;;;5.22;;
23304;SDS011;11821;51.456;8.844;2022-11-18T03:43:42;12.95;;;6.20;;
23304;SDS011;11821;51.456;8.844;2022-11-18T03:46:21;16.52;;;6.38;;
23304;SDS011;11821;51.456;8.844;2022-11-18T03:48:54;15.60;;;6.97;;
23304;SDS011;11821;51.456;8.844;2022-11-18T03:51:22;15.52;;;6.30;;
23304;SDS011;11821;51.456;8.844;2022-11-18T03:54:23;18.13;;;6.20;;
23304;SDS011;11821;51.456;8.844;2022-11-18T03:56:55;23.65;;;9.80;;
23304;SDS011;11821;51.456;8.844;2022-11-18T03:59:26;36.53;;;14.40;;
23304;SDS011;11821;51.456;8.844;2022-11-18T04:02:16;33.55;;;12.85;;
23304;SDS011;11821;51.456;8.844;2022-11-18T04:04:49;20.40;;;9.32;;
23304;SDS011;11821;51.456;8.844;2022-11-18T04:09:55;22.45;;;9.50;;
23304;SDS011;11821;51.456;8.844;2022-11-18T04:12:41;23.55;;;9.82;;
23304;SDS011;11821;51.456;8.844;2022-11-18T04:15:29;26.50;;;9.52;;
23304;SDS011;11821;51.456;8.844;2022-11-18T04:17:57;33.80;;;10.25;;
23304;SDS011;11821;51.456;8.844;2022-11-18T04:20:24;23.88;;;9.55;;
23304;SDS011;11821;51.456;8.844;2022-11-18T04:22:51;24.85;;;8.95;;
23304;SDS011;11821;51.456;8.844;2022-11-18T04:25:17;32.45;;;10.20;;
23304;SDS011;11821;51.456;8.844;2022-11-18T04:27:43;51.55;;;10.98;;
23304;SDS011;11821;51.456;8.844;2022-11-18T04:30:10;143.98;;;15.05;;
23304;SDS011;11821;51.456;8.844;2022-11-18T04:32:36;165.13;;;15.95;;
23304;SDS011;11821;51.456;8.844;2022-11-18T04:35:03;116.22;;;14.38;;
23304;SDS011;11821;51.456;8.844;2022-11-18T04:37:29;124.43;;;14.95;;
23304;SDS011;11821;51.456;8.844;2022-11-18T04:39:55;101.70;;;14.40;;
23304;SDS011;11821;51.456;8.844;2022-11-18T04:42:22;182.45;;;17.20;;
23304;SDS011;11821;51.456;8.844;2022-11-18T04:44:48;211.00;;;18.55;;
23304;SDS011;11821;51.456;8.844;2022-11-18T04:47:14;162.27;;;17.27;;
23304;SDS011;11821;51.456;8.844;2022-11-18T04:49:40;220.05;;;19.23;;
23304;SDS011;11821;51.456;8.844;2022-11-18T04:52:07;162.60;;;16.98;;
23304;SDS011;11821;51.456;8.844;2022-11-18T04:54:34;179.23;;;17.45;;
23304;SDS011;11821;51.456;8.844;2022-11-18T04:57:00;81.30;;;14.70;;
23304;SDS011;11821;51.456;8.844;2022-11-18T04:59:29;129.13;;;16.08;;
23304;SDS011;11821;51.456;8.844;2022-11-18T05:01:56;104.80;;;15.02;;
23304;SDS011;11821;51.456;8.844;2022-11-18T05:04:26;108.95;;;14.90;;
23304;SDS011;11821;51.456;8.844;2022-11-18T05:06:55;125.95;;;15.57;;
23304;SDS011;11821;51.456;8.844;2022-11-18T05:09:22;136.77;;;18.50;;
23304;SDS011;11821;51.456;8.844;2022-11-18T05:11:48;85.82;;;13.07;;
23304;SDS011;11821;51.456;8.844;2022-11-18T05:14:33;156.32;;;17.17;;
23304;SDS011;11821;51.456;8.844;2022-11-18T05:17:01;95.18;;;15.77;;
23304;SDS011;11821;51.456;8.844;2022-11-18T05:19:29;44.22;;;13.15;;
23304;SDS011;11821;51.456;8.844;2022-11-18T05:21:55;72.88;;;15.82;;
23304;SDS011;11821;51.456;8.844;2022-11-18T05:24:21;77.95;;;18.67;;
23304;SDS011;11821;51.456;8.844;2022-11-18T05:26:49;42.95;;;12.82;;
23304;SDS011;11821;51.456;8.844;2022-11-18T05:29:17;57.05;;;12.93;;
23304;SDS011;11821;51.456;8.844;2022-11-18T05:31:44;30.80;;;12.48;;
23304;SDS011;11821;51.456;8.844;2022-11-18T05:34:11;27.95;;;12.25;;
23304;SDS011;11821;51.456;8.844;2022-11-18T05:36:38;21.52;;;11.38;;
23304;SDS011;11821;51.456;8.844;2022-11-18T05:39:05;22.60;;;11.20;;
23304;SDS011;11821;51.456;8.844;2022-11-18T05:41:31;19.98;;;11.05;;
23304;SDS011;11821;51.456;8.844;2022-11-18T05:44:16;19.55;;;10.75;;
23304;SDS011;11821;51.456;8.844;2022-11-18T05:46:42;25.38;;;10.90;;
23304;SDS011;11821;51.456;8.844;2022-11-18T05:49:08;11.40;;;7.72;;
23304;SDS011;11821;51.456;8.844;2022-11-18T05:51:34;20.25;;;10.35;;
23304;SDS011;11821;51.456;8.844;2022-11-18T05:54:06;11.90;;;7.68;;
23304;SDS011;11821;51.456;8.844;2022-11-18T05:56:35;17.10;;;10.43;;
23304;SDS011;11821;51.456;8.844;2022-11-18T05:59:05;19.58;;;8.90;;
23304;SDS011;11821;51.456;8.844;2022-11-18T06:04:27;18.65;;;10.38;;
23304;SDS011;11821;51.456;8.844;2022-11-18T06:07:09;16.33;;;9.38;;
23304;SDS011;11821;51.456;8.844;2022-11-18T06:09:40;16.98;;;10.43;;
23304;SDS011;11821;51.456;8.844;2022-11-18T06:12:10;16.02;;;9.85;;
23304;SDS011;11821;51.456;8.844;2022-11-18T06:14:42;11.60;;;7.65;;
23304;SDS011;11821;51.456;8.844;2022-11-18T06:17:15;17.73;;;10.05;;
23304;SDS011;11821;51.456;8.844;2022-11-18T06:19:45;19.30;;;10.40;;
23304;SDS011;11821;51.456;8.844;2022-11-18T06:22:12;14.38;;;9.73;;
23304;SDS011;11821;51.456;8.844;2022-11-18T06:24:38;15.50;;;9.95;;
23304;SDS011;11821;51.456;8.844;2022-11-18T06:27:06;14.35;;;9.50;;
23304;SDS011;11821;51.456;8.844;2022-11-18T06:29:32;15.07;;;10.32;;
23304;SDS011;11821;51.456;8.844;2022-11-18T06:31:59;17.92;;;9.68;;
23304;SDS011;11821;51.456;8.844;2022-11-18T06:34:25;17.83;;;10.80;;
23304;SDS011;11821;51.456;8.844;2022-11-18T06:36:51;16.73;;;10.25;;
23304;SDS011;11821;51.456;8.844;2022-11-18T06:39:18;15.65;;;9.93;;
23304;SDS011;11821;51.456;8.844;2022-11-18T06:41:44;12.55;;;7.78;;
23304;SDS011;11821;51.456;8.844;2022-11-18T06:44:10;17.58;;;10.52;;
23304;SDS011;11821;51.456;8.844;2022-11-18T06:46:37;11.30;;;8.02;;
23304;SDS011;11821;51.456;8.844;2022-11-18T06:49:25;9.88;;;7.60;;
23304;SDS011;11821;51.456;8.844;2022-11-18T06:51:52;15.98;;;9.38;;
23304;SDS011;11821;51.456;8.844;2022-11-18T06:54:19;21.80;;;10.52;;
23304;SDS011;11821;51.456;8.844;2022-11-18T06:56:45;20.13;;;10.63;;
23304;SDS011;11821;51.456;8.844;2022-11-18T06:59:11;20.23;;;11.68;;
23304;SDS011;11821;51.456;8.844;2022-11-18T07:01:39;20.25;;;12.27;;
23304;SDS011;11821;51.456;8.844;2022-11-18T07:04:06;20.05;;;11.50;;
23304;SDS011;11821;51.456;8.844;2022-11-18T07:06:33;22.35;;;12.20;;
23304;SDS011;11821;51.456;8.844;2022-11-18T07:09:00;22.77;;;11.93;;
23304;SDS011;11821;51.456;8.844;2022-11-18T07:11:29;18.30;;;11.07;;
23304;SDS011;11821;51.456;8.844;2022-11-18T07:13:55;21.65;;;13.27;;
23304;SDS011;11821;51.456;8.844;2022-11-18T07:16:22;25.00;;;13.23;;
23304;SDS011;11821;51.456;8.844;2022-11-18T07:18:51;18.85;;;10.68;;
23304;SDS011;11821;51.456;8.844;2022-11-18T07:21:20;19.15;;;11.57;;
23304;SDS011;11821;51.456;8.844;2022-11-18T07:23:48;21.08;;;11.57;;
23304;SDS011;11821;51.456;8.844;2022-11-18T07:26:15;51.13;;;27.50;;
23304;SDS011;11821;51.456;8.844;2022-11-18T07:28:41;29.60;;;17.50;;
23304;SDS011;11821;51.456;8.844;2022-11-18T07:31:11;21.83;;;11.93;;
23304;SDS011;11821;51.456;8.844;2022-11-18T07:33:39;21.00;;;12.10;;
23304;SDS011;11821;51.456;8.844;2022-11-18T07:36:10;11.38;;;8.20;;
23304;SDS011;11821;51.456;8.844;2022-11-18T07:38:41;25.13;;;13.35;;
23304;SDS011;11821;51.456;8.844;2022-11-18T07:41:18;21.33;;;11.77;;
23304;SDS011;11821;51.456;8.844;2022-11-18T07:43:46;20.77;;;10.57;;
23304;SDS011;11821;51.456;8.844;2022-11-18T07:46:18;20.38;;;10.75;;
23304;SDS011;11821;51.456;8.844;2022-11-18T07:49:04;12.85;;;9.00;;
23304;SDS011;11821;51.456;8.844;2022-11-18T07:51:33;23.30;;;13.45;;
23304;SDS011;11821;51.456;8.844;2022-11-18T07:54:00;26.75;;;17.73;;
23304;SDS011;11821;51.456;8.844;2022-11-18T07:56:37;19.70;;;12.75;;
23304;SDS011;11821;51.456;8.844;2022-11-18T07:59:04;21.83;;;15.25;;
23304;SDS011;11821;51.456;8.844;2022-11-18T08:01:30;26.40;;;16.17;;
23304;SDS011;11821;51.456;8.844;2022-11-18T08:03:57;20.75;;;12.48;;
23304;SDS011;11821;51.456;8.844;2022-11-18T08:06:31;21.40;;;12.10;;
23304;SDS011;11821;51.456;8.844;2022-11-18T08:08:59;17.30;;;10.90;;
23304;SDS011;11821;51.456;8.844;2022-11-18T08:11:25;17.58;;;11.52;;
23304;SDS011;11821;51.456;8.844;2022-11-18T08:13:52;20.98;;;12.20;;
23304;SDS011;11821;51.456;8.844;2022-11-18T08:16:19;28.35;;;14.50;;
23304;SDS011;11821;51.456;8.844;2022-11-18T08:18:47;50.42;;;25.10;;
23304;SDS011;11821;51.456;8.844;2022-11-18T08:21:13;29.30;;;15.85;;
23304;SDS011;11821;51.456;8.844;2022-11-18T08:23:40;25.40;;;13.07;;
23304;SDS011;11821;51.456;8.844;2022-11-18T08:26:10;13.50;;;9.52;;
23304;SDS011;11821;51.456;8.844;2022-11-18T08:28:39;22.25;;;13.82;;
23304;SDS011;11821;51.456;8.844;2022-11-18T08:31:13;16.88;;;11.48;;
23304;SDS011;11821;51.456;8.844;2022-11-18T08:33:56;26.85;;;15.32;;
23304;SDS011;11821;51.456;8.844;2022-11-18T08:36:26;28.80;;;15.43;;
23304;SDS011;11821;51.456;8.844;2022-11-18T08:38:54;27.02;;;15.02;;
23304;SDS011;11821;51.456;8.844;2022-11-18T08:41:24;19.35;;;9.88;;
23304;SDS011;11821;51.456;8.844;2022-11-18T08:44:03;15.93;;;10.50;;
23304;SDS011;11821;51.456;8.844;2022-11-18T08:46:30;14.35;;;10.30;;
23304;SDS011;11821;51.456;8.844;2022-11-18T08:48:58;22.85;;;13.18;;
23304;SDS011;11821;51.456;8.844;2022-11-18T08:51:25;22.08;;;13.10;;
23304;SDS011;11821;51.456;8.844;2022-11-18T08:53:52;24.70;;;13.35;;
23304;SDS011;11821;51.456;8.844;2022-11-18T08:56:19;23.90;;;13.63;;
23304;SDS011;11821;51.456;8.844;2022-11-18T08:58:46;22.98;;;12.93;;
23304;SDS011;11821;51.456;8.844;2022-11-18T09:01:13;18.48;;;13.45;;
23304;SDS011;11821;51.456;8.844;2022-11-18T09:03:39;20.33;;;11.70;;
23304;SDS011;11821;51.456;8.844;2022-11-18T09:06:09;17.95;;;11.75;;
23304;SDS011;11821;51.456;8.844;2022-11-18T09:08:40;11.15;;;7.90;;
23304;SDS011;11821;51.456;8.844;2022-11-18T09:11:08;21.30;;;13.32;;
23304;SDS011;11821;51.456;8.844;2022-11-18T09:13:56;16.10;;;10.70;;
23304;SDS011;11821;51.456;8.844;2022-11-18T09:16:24;23.70;;;12.68;;
23304;SDS011;11821;51.456;8.844;2022-11-18T09:18:51;22.83;;;13.27;;
23304;SDS011;11821;51.456;8.844;2022-11-18T09:21:19;21.85;;;12.07;;
23304;SDS011;11821;51.456;8.844;2022-11-18T09:23:45;15.73;;;9.00;;
23304;SDS011;11821;51.456;8.844;2022-11-18T09:26:12;7.93;;;6.63;;
23304;SDS011;11821;51.456;8.844;2022-11-18T09:28:40;16.05;;;11.45;;
23304;SDS011;11821;51.456;8.844;2022-11-18T09:31:10;18.95;;;12.00;;
23304;SDS011;11821;51.456;8.844;2022-11-18T09:33:39;20.02;;;12.45;;
23304;SDS011;11821;51.456;8.844;2022-11-18T09:36:24;23.70;;;11.82;;
23304;SDS011;11821;51.456;8.844;2022-11-18T09:38:51;23.17;;;12.60;;
23304;SDS011;11821;51.456;8.844;2022-11-18T09:51:54;20.10;;;12.80;;
23304;SDS011;11821;51.456;8.844;2022-11-18T09:54:26;20.25;;;11.95;;
23304;SDS011;11821;51.456;8.844;2022-11-18T09:57:01;26.10;;;12.52;;
23304;SDS011;11821;51.456;8.844;2022-11-18T09:59:34;23.08;;;12.90;;
23304;SDS011;11821;51.456;8.844;2022-11-18T10:02:20;23.38;;;13.00;;
23304;SDS011;11821;51.456;8.844;2022-11-18T10:05:14;19.38;;;11.30;;
23304;SDS011;11821;51.456;8.844;2022-11-18T10:07:53;21.05;;;11.50;;
23304;SDS011;11821;51.456;8.844;2022-11-18T10:10:37;16.52;;;9.52;;
23304;SDS011;11821;51.456;8.844;2022-11-18T10:13:11;14.82;;;9.20;;
23304;SDS011;11821;51.456;8.844;2022-11-18T10:18:34;11.45;;;7.82;;
23304;SDS011;11821;51.456;8.844;2022-11-18T10:24:17;12.27;;;8.43;;
23304;SDS011;11821;51.456;8.844;2022-11-18T10:26:56;10.68;;;7.22;;
23304;SDS011;11821;51.456;8.844;2022-11-18T10:29:24;10.10;;;8.00;;
23304;SDS011;11821;51.456;8.844;2022-11-18T10:32:07;11.35;;;7.93;;
23304;SDS011;11821;51.456;8.844;2022-11-18T10:34:48;10.27;;;7.20;;
23304;SDS011;11821;51.456;8.844;2022-11-18T10:37:22;14.90;;;9.40;;
23304;SDS011;11821;51.456;8.844;2022-11-18T10:39:59;8.82;;;7.45;;
23304;SDS011;11821;51.456;8.844;2022-11-18T10:42:29;8.60;;;6.78;;
23304;SDS011;11821;51.456;8.844;2022-11-18T10:50:49;13.57;;;9.88;;
23304;SDS011;11821;51.456;8.844;2022-11-18T10:56:15;15.45;;;12.48;;
23304;SDS011;11821;51.456;8.844;2022-11-18T10:58:45;8.88;;;7.47;;
23304;SDS011;11821;51.456;8.844;2022-11-18T11:03:55;9.75;;;7.13;;
23304;SDS011;11821;51.456;8.844;2022-11-18T11:09:04;9.73;;;6.78;;
23304;SDS011;11821;51.456;8.844;2022-11-18T11:11:37;9.02;;;7.93;;
23304;SDS011;11821;51.456;8.844;2022-11-18T11:17:09;10.48;;;9.27;;
23304;SDS011;11821;51.456;8.844;2022-11-18T11:19:58;12.27;;;8.60;;
23304;SDS011;11821;51.456;8.844;2022-11-18T11:22:48;10.10;;;7.10;;
23304;SDS011;11821;51.456;8.844;2022-11-18T11:25:15;8.63;;;7.35;;
23304;SDS011;11821;51.456;8.844;2022-11-18T11:30:46;9.70;;;8.38;;
23304;SDS011;11821;51.456;8.844;2022-11-18T11:50:53;8.90;;;7.85;;
23304;SDS011;11821;51.456;8.844;2022-11-18T12:03:43;9.30;;;7.90;;
23304;SDS011;11821;51.456;8.844;2022-11-18T12:06:17;8.25;;;7.30;;
23304;SDS011;11821;51.456;8.844;2022-11-18T12:08:55;11.82;;;8.95;;
23304;SDS011;11821;51.456;8.844;2022-11-18T12:11:52;11.63;;;8.65;;
23304;SDS011;11821;51.456;8.844;2022-11-18T12:20:38;16.75;;;10.32;;
23304;SDS011;11821;51.456;8.844;2022-11-18T12:23:10;17.00;;;10.73;;
23304;SDS011;11821;51.456;8.844;2022-11-18T12:28:21;18.92;;;12.20;;
23304;SDS011;11821;51.456;8.844;2022-11-18T12:30:48;19.10;;;13.02;;
23304;SDS011;11821;51.456;8.844;2022-11-18T12:33:15;20.60;;;12.23;;
23304;SDS011;11821;51.456;8.844;2022-11-18T12:35:46;12.55;;;10.80;;
23304;SDS011;11821;51.456;8.844;2022-11-18T12:38:30;16.05;;;12.02;;
23304;SDS011;11821;51.456;8.844;2022-11-18T12:40:56;15.05;;;11.73;;
23304;SDS011;11821;51.456;8.844;2022-11-18T12:51:52;17.23;;;12.40;;
23304;SDS011;11821;51.456;8.844;2022-11-18T12:54:22;16.45;;;11.77;;
23304;SDS011;11821;51.456;8.844;2022-11-18T12:56:50;16.10;;;11.60;;
23304;SDS011;11821;51.456;8.844;2022-11-18T12:59:25;15.18;;;12.23;;
23304;SDS011;11821;51.456;8.844;2022-11-18T13:05:01;14.63;;;10.45;;
23304;SDS011;11821;51.456;8.844;2022-11-18T13:07:58;16.65;;;11.13;;
23304;SDS011;11821;51.456;8.844;2022-11-18T13:15:51;13.02;;;10.10;;
23304;SDS011;11821;51.456;8.844;2022-11-18T13:18:46;18.02;;;10.23;;
23304;SDS011;11821;51.456;8.844;2022-11-18T13:21:23;13.73;;;8.55;;
23304;SDS011;11821;51.456;8.844;2022-11-18T13:24:10;10.35;;;6.82;;
23304;SDS011;11821;51.456;8.844;2022-11-18T13:26:41;7.83;;;5.67;;
23304;SDS011;11821;51.456;8.844;2022-11-18T13:32:00;15.02;;;8.23;;
23304;SDS011;11821;51.456;8.844;2022-11-18T13:34:47;10.98;;;7.97;;
23304;SDS011;11821;51.456;8.844;2022-11-18T13:37:47;10.80;;;8.30;;
23304;SDS011;11821;51.456;8.844;2022-11-18T13:40:37;10.48;;;8.57;;
23304;SDS011;11821;51.456;8.844;2022-11-18T13:43:31;11.20;;;9.10;;
23304;SDS011;11821;51.456;8.844;2022-11-18T13:46:35;10.82;;;8.73;;
23304;SDS011;11821;51.456;8.844;2022-11-18T13:48:55;11.55;;;9.10;;
23304;SDS011;11821;51.456;8.844;2022-11-18T13:51:23;12.20;;;10.00;;
23304;SDS011;11821;51.456;8.844;2022-11-18T13:53:51;11.32;;;9.13;;
23304;SDS011;11821;51.456;8.844;2022-11-18T13:56:24;12.30;;;8.70;;
23304;SDS011;11821;51.456;8.844;2022-11-18T13:58:57;10.95;;;9.38;;
23304;SDS011;11821;51.456;8.844;2022-11-18T14:06:40;11.00;;;7.25;;
23304;SDS011;11821;51.456;8.844;2022-11-18T14:12:02;9.87;;;7.13;;
23304;SDS011;11821;51.456;8.844;2022-11-18T14:14:34;8.18;;;6.75;;
23304;SDS011;11821;51.456;8.844;2022-11-18T14:19:52;7.78;;;5.30;;
23304;SDS011;11821;51.456;8.844;2022-11-18T14:22:22;8.52;;;5.57;;
23304;SDS011;11821;51.456;8.844;2022-11-18T14:24:59;6.53;;;5.88;;
23304;SDS011;11821;51.456;8.844;2022-11-18T14:27:38;6.72;;;5.18;;
23304;SDS011;11821;51.456;8.844;2022-11-18T14:35:44;7.53;;;5.30;;
23304;SDS011;11821;51.456;8.844;2022-11-18T14:38:16;7.30;;;4.68;;
23304;SDS011;11821;51.456;8.844;2022-11-18T14:41:03;4.75;;;4.20;;
23304;SDS011;11821;51.456;8.844;2022-11-18T14:43:32;6.32;;;3.80;;
23304;SDS011;11821;51.456;8.844;2022-11-18T14:45:58;6.13;;;4.90;;
23304;SDS011;11821;51.456;8.844;2022-11-18T14:48:27;7.93;;;6.72;;
23304;SDS011;11821;51.456;8.844;2022-11-18T14:50:56;4.80;;;4.07;;
23304;SDS011;11821;51.456;8.844;2022-11-18T14:53:23;6.10;;;4.35;;
23304;SDS011;11821;51.456;8.844;2022-11-18T14:55:51;7.20;;;5.43;;
23304;SDS011;11821;51.456;8.844;2022-11-18T14:58:18;7.00;;;5.93;;
23304;SDS011;11821;51.456;8.844;2022-11-18T15:00:46;7.03;;;5.90;;
23304;SDS011;11821;51.456;8.844;2022-11-18T15:03:13;8.45;;;6.68;;
23304;SDS011;11821;51.456;8.844;2022-11-18T15:05:39;9.38;;;6.50;;
23304;SDS011;11821;51.456;8.844;2022-11-18T15:08:06;8.40;;;6.95;;
23304;SDS011;11821;51.456;8.844;2022-11-18T15:10:33;10.27;;;7.10;;
23304;SDS011;11821;51.456;8.844;2022-11-18T15:12:59;9.30;;;7.18;;
23304;SDS011;11821;51.456;8.844;2022-11-18T15:15:26;8.32;;;6.70;;
23304;SDS011;11821;51.456;8.844;2022-11-18T15:17:52;8.10;;;6.50;;
23304;SDS011;11821;51.456;8.844;2022-11-18T15:20:20;8.63;;;6.88;;
23304;SDS011;11821;51.456;8.844;2022-11-18T15:22:47;6.30;;;5.70;;
23304;SDS011;11821;51.456;8.844;2022-11-18T15:25:14;8.15;;;7.28;;
23304;SDS011;11821;51.456;8.844;2022-11-18T15:27:40;8.32;;;5.55;;
23304;SDS011;11821;51.456;8.844;2022-11-18T15:30:06;6.90;;;6.20;;
23304;SDS011;11821;51.456;8.844;2022-11-18T15:32:35;7.93;;;6.00;;
23304;SDS011;11821;51.456;8.844;2022-11-18T15:35:01;7.18;;;6.05;;
23304;SDS011;11821;51.456;8.844;2022-11-18T15:37:28;6.10;;;4.65;;
23304;SDS011;11821;51.456;8.844;2022-11-18T15:39:54;5.93;;;5.03;;
23304;SDS011;11821;51.456;8.844;2022-11-18T15:42:20;8.40;;;4.50;;
23304;SDS011;11821;51.456;8.844;2022-11-18T15:44:46;4.60;;;4.20;;
23304;SDS011;11821;51.456;8.844;2022-11-18T15:47:13;4.80;;;4.30;;
23304;SDS011;11821;51.456;8.844;2022-11-18T15:49:39;5.32;;;4.07;;
23304;SDS011;11821;51.456;8.844;2022-11-18T15:52:08;4.45;;;4.05;;
23304;SDS011;11821;51.456;8.844;2022-11-18T15:54:36;4.45;;;4.05;;
23304;SDS011;11821;51.456;8.844;2022-11-18T15:57:03;5.45;;;4.47;;
23304;SDS011;11821;51.456;8.844;2022-11-18T15:59:29;5.53;;;4.60;;
23304;SDS011;11821;51.456;8.844;2022-11-18T16:01:56;7.85;;;4.70;;
23304;SDS011;11821;51.456;8.844;2022-11-18T16:04:22;5.82;;;4.95;;
23304;SDS011;11821;51.456;8.844;2022-11-18T16:06:48;5.28;;;4.55;;
23304;SDS011;11821;51.456;8.844;2022-11-18T16:09:14;6.80;;;4.95;;
23304;SDS011;11821;51.456;8.844;2022-11-18T16:11:41;5.75;;;4.68;;
23304;SDS011;11821;51.456;8.844;2022-11-18T16:14:26;7.55;;;5.10;;
23304;SDS011;11821;51.456;8.844;2022-11-18T16:16:53;5.10;;;4.00;;
23304;SDS011;11821;51.456;8.844;2022-11-18T16:19:21;5.40;;;4.60;;
23304;SDS011;11821;51.456;8.844;2022-11-18T16:21:50;5.75;;;4.55;;
23304;SDS011;11821;51.456;8.844;2022-11-18T16:24:19;4.97;;;4.22;;
23304;SDS011;11821;51.456;8.844;2022-11-18T16:26:48;24.40;;;15.40;;
23304;SDS011;11821;51.456;8.844;2022-11-18T16:29:14;20.58;;;15.88;;
23304;SDS011;11821;51.456;8.844;2022-11-18T16:31:45;11.25;;;10.07;;
23304;SDS011;11821;51.456;8.844;2022-11-18T16:34:17;11.05;;;8.02;;
23304;SDS011;11821;51.456;8.844;2022-11-18T16:36:48;9.73;;;7.07;;
23304;SDS011;11821;51.456;8.844;2022-11-18T16:39:20;13.05;;;8.93;;
23304;SDS011;11821;51.456;8.844;2022-11-18T16:41:53;21.50;;;12.85;;
23304;SDS011;11821;51.456;8.844;2022-11-18T16:44:21;6.88;;;5.32;;
23304;SDS011;11821;51.456;8.844;2022-11-18T16:46:49;9.88;;;7.35;;
23304;SDS011;11821;51.456;8.844;2022-11-18T16:49:18;5.13;;;3.95;;
23304;SDS011;11821;51.456;8.844;2022-11-18T16:51:46;22.33;;;14.23;;
23304;SDS011;11821;51.456;8.844;2022-11-18T16:54:15;13.82;;;10.75;;
23304;SDS011;11821;51.456;8.844;2022-11-18T16:56:48;12.77;;;10.40;;
23304;SDS011;11821;51.456;8.844;2022-11-18T16:59:21;8.82;;;6.65;;
23304;SDS011;11821;51.456;8.844;2022-11-18T17:01:49;8.63;;;7.00;;
23304;SDS011;11821;51.456;8.844;2022-11-18T17:04:17;11.57;;;10.20;;
23304;SDS011;11821;51.456;8.844;2022-11-18T17:06:44;10.02;;;8.68;;
23304;SDS011;11821;51.456;8.844;2022-11-18T17:09:14;3.88;;;2.75;;
23304;SDS011;11821;51.456;8.844;2022-11-18T17:11:44;9.23;;;7.18;;
23304;SDS011;11821;51.456;8.844;2022-11-18T17:14:10;13.82;;;10.40;;
23304;SDS011;11821;51.456;8.844;2022-11-18T17:16:37;11.02;;;8.40;;
23304;SDS011;11821;51.456;8.844;2022-11-18T17:19:03;9.30;;;7.90;;
23304;SDS011;11821;51.456;8.844;2022-11-18T17:21:30;7.22;;;5.63;;